createdAt,value
2017-08-30T00:00:06.838Z,35.77
2017-08-30T00:02:34.289Z,40.00
2017-08-30T00:05:01.779Z,36.60
2017-08-30T00:07:29.226Z,32.80
2017-08-30T00:09:56.689Z,34.10
2017-08-30T00:12:24.159Z,34.13
2017-08-30T00:14:51.613Z,36.03
2017-08-30T00:17:19.078Z,35.27
2017-08-30T00:19:46.551Z,35.20
2017-08-30T00:22:14.005Z,35.27
2017-08-30T00:24:53.562Z,33.80
2017-08-30T00:27:21.021Z,33.73
2017-08-30T00:29:48.479Z,32.60
2017-08-30T00:32:15.950Z,34.50
2017-08-30T00:34:43.405Z,32.27
2017-08-30T00:37:10.862Z,32.83
2017-08-30T00:39:38.327Z,37.67
2017-08-30T00:42:05.810Z,34.80
2017-08-30T00:44:33.267Z,37.10
2017-08-30T00:47:00.726Z,33.97
2017-08-30T00:49:28.203Z,144.30
2017-08-30T00:51:55.662Z,162.17
2017-08-30T00:54:23.117Z,66.73
2017-08-30T00:56:50.802Z,45.43
2017-08-30T00:59:18.263Z,36.80
2017-08-30T01:01:45.718Z,34.73
2017-08-30T01:04:13.184Z,34.17
2017-08-30T01:06:40.638Z,35.00
2017-08-30T01:09:08.096Z,36.33
2017-08-30T01:11:35.570Z,34.53
2017-08-30T01:14:03.026Z,30.43
2017-08-30T01:16:30.479Z,32.20
2017-08-30T01:18:58.211Z,32.47
2017-08-30T01:21:25.681Z,32.53
2017-08-30T01:23:53.133Z,31.73
2017-08-30T01:26:20.617Z,32.10
2017-08-30T01:28:48.070Z,31.40
2017-08-30T01:31:15.599Z,32.70
2017-08-30T01:33:43.066Z,31.70
2017-08-30T01:36:10.527Z,30.17
2017-08-30T01:38:38.001Z,33.83
2017-08-30T01:41:05.453Z,51.33
2017-08-30T01:43:32.910Z,45.13
2017-08-30T01:46:00.558Z,35.37
2017-08-30T01:48:28.017Z,33.50
2017-08-30T01:50:55.465Z,35.90
2017-08-30T01:53:23.289Z,31.80
2017-08-30T01:55:50.742Z,32.10
2017-08-30T01:58:18.198Z,33.67
2017-08-30T02:00:45.678Z,34.03
2017-08-30T02:03:13.137Z,35.23
2017-08-30T02:05:40.582Z,36.77
2017-08-30T02:08:08.053Z,38.77
2017-08-30T02:10:35.511Z,41.13
2017-08-30T02:13:02.974Z,43.80
2017-08-30T02:15:30.447Z,43.50
2017-08-30T02:17:57.891Z,43.10
2017-08-30T02:20:25.609Z,42.53
2017-08-30T02:22:53.066Z,47.30
2017-08-30T02:25:20.527Z,47.10
2017-08-30T02:27:48.094Z,45.57
2017-08-30T02:30:15.579Z,54.97
2017-08-30T02:32:43.026Z,50.80
2017-08-30T02:35:10.502Z,49.27
2017-08-30T02:37:37.962Z,48.87
2017-08-30T02:40:05.414Z,45.70
2017-08-30T02:42:32.898Z,49.77
2017-08-30T02:45:00.354Z,44.93
2017-08-30T02:47:27.810Z,46.00
2017-08-30T02:49:55.312Z,42.37
2017-08-30T02:52:22.782Z,48.23
2017-08-30T02:54:50.226Z,49.97
2017-08-30T02:57:17.726Z,49.93
2017-08-30T02:59:45.187Z,47.17
2017-08-30T03:02:12.642Z,48.60
2017-08-30T03:04:40.110Z,48.97
2017-08-30T03:07:07.572Z,52.57
2017-08-30T03:09:35.058Z,49.40
2017-08-30T03:12:02.516Z,50.90
2017-08-30T03:14:29.981Z,51.67
2017-08-30T03:16:57.446Z,51.83
2017-08-30T03:19:24.906Z,48.80
2017-08-30T03:21:52.383Z,48.00
2017-08-30T03:24:19.835Z,49.17
2017-08-30T03:26:47.299Z,50.07
2017-08-30T03:29:14.791Z,45.50
2017-08-30T03:31:42.249Z,47.03
2017-08-30T03:34:09.703Z,46.00
2017-08-30T03:36:37.176Z,47.53
2017-08-30T03:39:04.639Z,44.83
2017-08-30T03:41:32.100Z,46.50
2017-08-30T03:43:59.594Z,44.30
2017-08-30T03:46:27.053Z,45.50
2017-08-30T03:51:47.130Z,41.73
2017-08-30T03:54:14.583Z,42.60
2017-08-30T03:56:42.047Z,47.43
2017-08-30T03:59:09.512Z,41.53
2017-08-30T04:01:36.991Z,43.43
2017-08-30T04:04:04.451Z,41.70
2017-08-30T04:06:32.030Z,45.40
2017-08-30T04:08:59.839Z,44.53
2017-08-30T04:11:27.298Z,43.60
2017-08-30T04:13:54.755Z,46.70
2017-08-30T04:16:22.390Z,43.30
2017-08-30T04:18:49.848Z,42.97
2017-08-30T04:21:17.302Z,42.83
2017-08-30T04:23:44.798Z,43.17
2017-08-30T04:26:12.263Z,42.37
2017-08-30T04:28:39.719Z,47.23
2017-08-30T04:31:07.212Z,49.93
2017-08-30T04:33:34.688Z,48.83
2017-08-30T04:36:02.151Z,49.50
2017-08-30T04:38:29.656Z,48.57
2017-08-30T04:40:57.116Z,50.67
2017-08-30T04:43:24.602Z,47.20
2017-08-30T04:45:52.095Z,51.03
2017-08-30T04:48:19.551Z,49.63
2017-08-30T04:50:47.028Z,46.03
2017-08-30T04:53:14.494Z,49.37
2017-08-30T04:55:41.948Z,46.90
2017-08-30T04:58:09.453Z,47.90
2017-08-30T05:00:36.926Z,43.37
2017-08-30T05:03:04.383Z,45.80
2017-08-30T05:05:31.858Z,43.67
2017-08-30T05:07:59.321Z,40.30
2017-08-30T05:10:26.788Z,42.73
2017-08-30T05:12:54.483Z,45.37
2017-08-30T05:15:21.945Z,48.97
2017-08-30T05:17:49.394Z,45.13
2017-08-30T05:20:16.886Z,46.17
2017-08-30T05:22:44.343Z,46.33
2017-08-30T05:25:11.808Z,45.87
2017-08-30T05:27:39.568Z,46.00
2017-08-30T05:30:07.031Z,45.90
2017-08-30T05:32:34.505Z,84.77
2017-08-30T05:35:01.994Z,45.57
2017-08-30T05:37:29.451Z,44.50
2017-08-30T05:39:56.911Z,46.03
2017-08-30T05:42:24.673Z,43.30
2017-08-30T05:44:52.130Z,40.60
2017-08-30T05:47:19.594Z,40.60
2017-08-30T05:49:47.447Z,40.27
2017-08-30T05:52:15.043Z,43.10
2017-08-30T05:54:42.515Z,38.70
2017-08-30T05:57:10.007Z,38.00
2017-08-30T05:59:37.580Z,39.90
2017-08-30T06:02:05.440Z,38.83
2017-08-30T06:04:32.894Z,40.40
2017-08-30T06:07:00.395Z,43.30
2017-08-30T06:09:27.852Z,39.10
2017-08-30T06:11:55.314Z,38.70
2017-08-30T06:14:22.791Z,37.83
2017-08-30T06:16:50.250Z,40.43
2017-08-30T06:19:17.740Z,38.77
2017-08-30T06:21:45.199Z,40.23
2017-08-30T06:24:12.682Z,39.13
2017-08-30T06:26:40.147Z,38.03
2017-08-30T06:29:07.620Z,40.23
2017-08-30T06:31:35.114Z,38.10
2017-08-30T06:34:02.595Z,38.27
2017-08-30T06:36:30.052Z,36.73
2017-08-30T06:38:57.875Z,39.63
2017-08-30T06:41:25.336Z,34.87
2017-08-30T06:43:52.790Z,34.00
2017-08-30T06:46:20.275Z,33.63
2017-08-30T06:48:47.731Z,33.47
2017-08-30T06:51:15.200Z,34.97
2017-08-30T06:53:42.679Z,32.60
2017-08-30T06:56:10.343Z,31.50
2017-08-30T06:58:37.804Z,34.13
2017-08-30T07:01:05.275Z,32.53
2017-08-30T07:03:32.822Z,33.77
2017-08-30T07:06:00.275Z,34.87
2017-08-30T07:08:27.735Z,33.47
2017-08-30T07:10:55.220Z,32.03
2017-08-30T07:13:22.675Z,32.10
2017-08-30T07:15:50.135Z,30.97
2017-08-30T07:18:17.627Z,29.80
2017-08-30T07:20:45.083Z,30.57
2017-08-30T07:23:12.547Z,31.20
2017-08-30T07:25:40.345Z,28.90
2017-08-30T07:28:07.815Z,27.83
2017-08-30T07:30:35.312Z,27.23
2017-08-30T07:33:06.759Z,24.97
2017-08-30T07:35:34.224Z,26.50
2017-08-30T07:38:01.687Z,25.67
2017-08-30T07:40:29.166Z,26.90
2017-08-30T07:42:56.623Z,27.60
2017-08-30T07:45:24.085Z,26.00
2017-08-30T07:47:51.594Z,25.93
2017-08-30T07:50:19.071Z,25.50
2017-08-30T07:52:46.544Z,24.60
2017-08-30T07:55:14.199Z,27.23
2017-08-30T07:57:48.384Z,23.87
2017-08-30T08:00:15.860Z,24.63
2017-08-30T08:02:43.324Z,22.10
2017-08-30T08:05:10.818Z,22.00
2017-08-30T08:07:38.300Z,23.50
2017-08-30T08:10:05.764Z,22.70
2017-08-30T08:12:33.264Z,22.10
2017-08-30T08:15:00.744Z,22.93
2017-08-30T08:17:28.216Z,22.63
2017-08-30T08:19:55.984Z,21.30
2017-08-30T08:22:23.600Z,23.53
2017-08-30T08:24:51.316Z,22.57
2017-08-30T08:27:18.791Z,22.63
2017-08-30T08:29:46.294Z,21.43
2017-08-30T08:32:14.667Z,23.97
2017-08-30T08:34:42.156Z,22.00
2017-08-30T08:37:09.614Z,23.53
2017-08-30T08:39:37.409Z,21.97
2017-08-30T08:42:04.870Z,21.53
2017-08-30T08:44:32.443Z,22.90
2017-08-30T08:46:59.943Z,27.17
2017-08-30T08:49:27.416Z,22.13
2017-08-30T08:51:54.863Z,20.03
2017-08-30T08:54:22.345Z,29.13
2017-08-30T08:56:49.830Z,31.67
2017-08-30T08:59:17.286Z,22.17
2017-08-30T09:01:44.772Z,21.33
2017-08-30T09:04:12.254Z,29.50
2017-08-30T09:06:39.747Z,22.20
2017-08-30T09:09:07.706Z,20.07
2017-08-30T09:11:35.178Z,19.67
2017-08-30T09:14:02.650Z,17.97
2017-08-30T09:16:30.155Z,19.30
2017-08-30T09:18:57.631Z,18.80
2017-08-30T09:21:25.086Z,18.87
2017-08-30T09:23:52.574Z,18.23
2017-08-30T09:26:20.036Z,18.77
2017-08-30T09:28:47.510Z,18.73
2017-08-30T09:31:14.979Z,21.43
2017-08-30T09:33:42.468Z,35.37
2017-08-30T09:36:09.946Z,19.07
2017-08-30T09:38:37.450Z,17.70
2017-08-30T09:41:05.323Z,18.73
2017-08-30T09:43:33.187Z,17.97
2017-08-30T09:46:00.669Z,19.00
2017-08-30T09:48:28.124Z,19.13
2017-08-30T09:50:55.583Z,17.63
2017-08-30T09:53:23.071Z,17.40
2017-08-30T09:55:50.664Z,30.83
2017-08-30T09:58:18.120Z,25.40
2017-08-30T10:00:45.970Z,18.70
2017-08-30T10:03:13.427Z,16.33
2017-08-30T10:05:40.886Z,30.33
2017-08-30T10:08:08.379Z,37.63
2017-08-30T10:10:35.845Z,36.13
2017-08-30T10:13:03.310Z,18.80
2017-08-30T10:15:31.805Z,18.03
2017-08-30T10:17:59.311Z,22.20
2017-08-30T10:20:26.791Z,26.33
2017-08-30T10:22:54.757Z,18.60
2017-08-30T10:25:22.266Z,16.83
2017-08-30T10:27:49.747Z,15.83
2017-08-30T10:30:17.208Z,18.50
2017-08-30T10:32:44.670Z,16.37
2017-08-30T10:35:12.200Z,16.10
2017-08-30T10:37:39.671Z,17.10
2017-08-30T10:40:07.519Z,39.53
2017-08-30T10:42:35.008Z,47.47
2017-08-30T10:45:02.497Z,23.30
2017-08-30T10:47:30.026Z,21.33
2017-08-30T10:49:58.322Z,16.10
2017-08-30T10:52:25.779Z,16.97
2017-08-30T10:54:53.921Z,17.07
2017-08-30T10:57:21.429Z,18.30
2017-08-30T10:59:49.048Z,16.53
2017-08-30T11:02:16.536Z,17.13
2017-08-30T11:04:44.024Z,16.80
2017-08-30T11:07:11.488Z,17.13
2017-08-30T11:09:38.966Z,16.30
2017-08-30T11:12:06.455Z,15.50
2017-08-30T11:14:33.919Z,15.60
2017-08-30T11:17:01.408Z,16.20
2017-08-30T11:19:28.874Z,30.87
2017-08-30T11:21:56.348Z,119.50
2017-08-30T11:24:23.852Z,47.37
2017-08-30T11:26:51.310Z,26.87
2017-08-30T11:29:18.773Z,20.77
2017-08-30T11:31:46.230Z,17.90
2017-08-30T11:34:13.987Z,19.63
2017-08-30T11:36:41.443Z,17.87
2017-08-30T11:39:08.902Z,17.57
2017-08-30T11:41:36.398Z,17.63
2017-08-30T11:44:03.855Z,15.47
2017-08-30T11:46:31.322Z,17.93
2017-08-30T11:48:58.799Z,17.43
2017-08-30T11:51:26.259Z,17.70
2017-08-30T11:53:53.719Z,15.97
2017-08-30T11:56:21.298Z,17.10
2017-08-30T11:58:49.090Z,37.20
2017-08-30T12:01:16.566Z,62.00
2017-08-30T12:03:44.045Z,48.30
2017-08-30T12:06:11.519Z,27.10
2017-08-30T12:08:39.021Z,19.60
2017-08-30T12:11:06.517Z,18.23
2017-08-30T12:13:34.086Z,16.80
2017-08-30T12:16:01.546Z,17.87
2017-08-30T12:18:29.029Z,17.80
2017-08-30T12:20:56.751Z,18.13
2017-08-30T12:23:24.523Z,18.87
2017-08-30T12:25:51.991Z,18.80
2017-08-30T12:28:19.544Z,20.40
2017-08-30T12:30:47.041Z,20.77
2017-08-30T12:33:14.510Z,19.10
2017-08-30T12:35:41.974Z,19.83
2017-08-30T12:38:15.127Z,20.20
2017-08-30T12:40:42.588Z,19.93
2017-08-30T12:43:10.228Z,18.90
2017-08-30T12:45:37.703Z,17.83
2017-08-30T12:48:05.163Z,20.07
2017-08-30T12:50:32.658Z,26.20
2017-08-30T12:53:00.110Z,27.17
2017-08-30T12:55:27.570Z,20.07
2017-08-30T12:57:55.115Z,19.73
2017-08-30T13:00:22.762Z,20.20
2017-08-30T13:02:50.251Z,23.60
2017-08-30T13:05:17.743Z,24.23
2017-08-30T13:07:45.203Z,23.13
2017-08-30T13:10:12.666Z,23.53
2017-08-30T13:12:40.240Z,22.63
2017-08-30T13:15:07.698Z,23.57
2017-08-30T13:17:35.159Z,23.93
2017-08-30T13:20:02.655Z,22.77
2017-08-30T13:22:30.124Z,22.27
2017-08-30T13:24:57.596Z,24.07
2017-08-30T13:27:25.435Z,25.30
2017-08-30T13:29:52.908Z,24.17
2017-08-30T13:32:20.374Z,24.67
2017-08-30T13:34:47.881Z,24.63
2017-08-30T13:37:15.351Z,24.20
2017-08-30T13:39:43.212Z,24.53
2017-08-30T13:42:10.671Z,23.10
2017-08-30T13:44:38.139Z,25.50
2017-08-30T13:47:05.723Z,25.17
2017-08-30T13:49:33.195Z,23.70
2017-08-30T13:52:00.659Z,23.00
2017-08-30T13:54:28.142Z,24.07
2017-08-30T13:56:55.605Z,24.30
2017-08-30T13:59:23.309Z,23.97
2017-08-30T14:01:50.783Z,23.53
2017-08-30T14:04:18.246Z,24.80
2017-08-30T14:06:45.710Z,25.47
2017-08-30T14:09:13.207Z,25.20
2017-08-30T14:11:40.672Z,25.10
2017-08-30T14:14:08.147Z,24.37
2017-08-30T14:16:35.780Z,24.47
2017-08-30T14:19:03.623Z,22.67
2017-08-30T14:21:31.096Z,22.67
2017-08-30T14:23:58.546Z,25.63
2017-08-30T14:26:26.036Z,33.10
2017-08-30T14:28:53.519Z,23.30
2017-08-30T14:31:20.995Z,24.57
2017-08-30T14:33:48.475Z,23.57
2017-08-30T14:36:15.935Z,22.17
2017-08-30T14:38:43.394Z,22.83
2017-08-30T14:41:11.226Z,23.07
2017-08-30T14:43:38.687Z,23.27
2017-08-30T14:46:06.152Z,23.10
2017-08-30T14:48:33.650Z,20.63
2017-08-30T14:51:01.107Z,21.70
2017-08-30T14:53:28.574Z,20.27
2017-08-30T14:55:56.254Z,21.80
2017-08-30T14:58:23.715Z,20.50
2017-08-30T15:00:51.170Z,21.03
2017-08-30T15:03:18.656Z,27.20
2017-08-30T15:05:46.115Z,22.77
2017-08-30T15:08:13.797Z,20.77
2017-08-30T15:10:41.355Z,20.30
2017-08-30T15:13:08.812Z,22.53
2017-08-30T15:15:36.620Z,23.03
2017-08-30T15:18:04.079Z,23.30
2017-08-30T15:20:31.547Z,21.03
2017-08-30T15:22:59.058Z,22.50
2017-08-30T15:25:26.518Z,21.33
2017-08-30T15:27:53.983Z,22.47
2017-08-30T15:30:21.475Z,21.53
2017-08-30T15:32:48.930Z,20.67
2017-08-30T15:35:16.391Z,22.00
2017-08-30T15:37:44.114Z,21.20
2017-08-30T15:40:11.575Z,20.87
2017-08-30T15:42:39.046Z,22.53
2017-08-30T15:45:06.784Z,20.43
2017-08-30T15:47:34.434Z,22.43
2017-08-30T15:50:01.894Z,23.63
2017-08-30T15:52:29.386Z,23.73
2017-08-30T15:54:56.861Z,21.70
2017-08-30T15:57:24.318Z,22.93
2017-08-30T15:59:51.803Z,21.90
2017-08-30T16:02:19.263Z,21.47
2017-08-30T16:04:46.721Z,24.40
2017-08-30T16:07:14.202Z,22.17
2017-08-30T16:09:41.666Z,22.57
2017-08-30T16:12:09.519Z,25.13
2017-08-30T16:14:36.979Z,23.17
2017-08-30T16:17:04.439Z,23.30
2017-08-30T16:19:31.935Z,23.23
2017-08-30T16:21:59.395Z,22.73
2017-08-30T16:24:26.859Z,24.00
2017-08-30T16:26:54.359Z,24.23
2017-08-30T16:29:21.814Z,25.80
2017-08-30T16:31:49.271Z,24.87
2017-08-30T16:34:16.751Z,26.60
2017-08-30T16:36:44.216Z,25.17
2017-08-30T16:39:11.672Z,26.00
2017-08-30T16:41:39.152Z,25.00
2017-08-30T16:44:06.623Z,27.30
2017-08-30T16:46:34.090Z,26.27
2017-08-30T16:49:01.576Z,24.80
2017-08-30T16:51:29.036Z,24.37
2017-08-30T16:53:56.490Z,25.50
2017-08-30T16:56:24.229Z,25.77
2017-08-30T16:58:51.683Z,26.13
2017-08-30T17:01:19.147Z,28.40
2017-08-30T17:03:46.715Z,25.30
2017-08-30T17:06:14.191Z,24.47
2017-08-30T17:08:41.652Z,24.83
2017-08-30T17:11:09.120Z,25.50
2017-08-30T17:13:36.600Z,25.03
2017-08-30T17:16:04.102Z,22.73
2017-08-30T17:18:31.559Z,25.40
2017-08-30T17:20:59.033Z,23.00
2017-08-30T17:23:26.508Z,31.80
2017-08-30T17:25:53.972Z,27.30
2017-08-30T17:28:21.426Z,25.13
2017-08-30T17:30:49.010Z,26.30
2017-08-30T17:33:16.468Z,25.53
2017-08-30T17:35:43.931Z,24.17
2017-08-30T17:38:11.411Z,24.80
2017-08-30T17:40:38.867Z,30.87
2017-08-30T17:43:06.330Z,26.47
2017-08-30T17:45:33.789Z,31.00
2017-08-30T17:48:01.254Z,26.40
2017-08-30T17:50:29.055Z,26.80
2017-08-30T17:52:56.611Z,36.40
2017-08-30T17:55:24.177Z,27.50
2017-08-30T17:57:51.886Z,27.33
2017-08-30T18:00:19.352Z,27.83
2017-08-30T18:02:46.814Z,26.50
2017-08-30T18:05:14.832Z,43.07
2017-08-30T18:07:42.283Z,32.13
2017-08-30T18:10:09.739Z,27.67
2017-08-30T18:12:37.211Z,27.97
2017-08-30T18:15:04.935Z,27.50
2017-08-30T18:17:32.400Z,27.50
2017-08-30T18:20:00.427Z,27.90
2017-08-30T18:22:28.813Z,31.10
2017-08-30T18:24:56.279Z,31.87
2017-08-30T18:27:23.735Z,51.23
2017-08-30T18:29:52.363Z,55.50
2017-08-30T18:32:21.811Z,33.20
2017-08-30T18:34:49.282Z,29.70
2017-08-30T18:37:17.210Z,77.13
2017-08-30T18:39:45.208Z,118.77
2017-08-30T18:42:12.671Z,55.27
2017-08-30T18:44:40.139Z,39.40
2017-08-30T18:47:08.566Z,34.60
2017-08-30T18:49:36.271Z,33.17
2017-08-30T18:52:04.263Z,32.40
2017-08-30T18:54:31.735Z,28.13
2017-08-30T18:56:59.238Z,28.67
2017-08-30T18:59:28.732Z,28.20
2017-08-30T19:01:56.204Z,31.67
2017-08-30T19:04:27.360Z,28.70
2017-08-30T19:06:55.915Z,26.50
2017-08-30T19:09:25.331Z,28.90
2017-08-30T19:11:54.588Z,29.77
2017-08-30T19:14:24.189Z,27.73
2017-08-30T19:16:53.664Z,29.90
2017-08-30T19:19:22.476Z,29.03
2017-08-30T19:21:53.241Z,27.97
2017-08-30T19:24:23.739Z,28.70
2017-08-30T19:26:57.760Z,31.60
2017-08-30T19:29:26.117Z,34.53
2017-08-30T19:31:53.584Z,29.97
2017-08-30T19:34:21.287Z,31.23
2017-08-30T19:36:51.227Z,35.60
2017-08-30T19:39:23.145Z,33.10
2017-08-30T19:41:50.619Z,35.37
2017-08-30T19:44:18.087Z,42.93
2017-08-30T19:46:49.165Z,39.10
2017-08-30T19:49:18.172Z,42.17
2017-08-30T19:51:46.941Z,32.73
2017-08-30T19:54:15.277Z,30.53
2017-08-30T19:56:44.591Z,192.70
2017-08-30T19:59:12.691Z,49.53
2017-08-30T20:01:40.156Z,35.17
2017-08-30T20:04:07.632Z,31.13
2017-08-30T20:06:35.120Z,31.47
2017-08-30T20:09:03.027Z,30.33
2017-08-30T20:11:30.664Z,34.63
2017-08-30T20:13:58.122Z,31.10
2017-08-30T20:16:26.540Z,33.10
2017-08-30T20:18:54.307Z,30.60
2017-08-30T20:21:21.943Z,30.97
2017-08-30T20:23:49.409Z,29.40
2017-08-30T20:26:17.091Z,30.53
2017-08-30T20:28:44.559Z,30.50
2017-08-30T20:31:12.022Z,29.93
2017-08-30T20:33:39.530Z,28.67
2017-08-30T20:36:07.011Z,28.63
2017-08-30T20:38:34.479Z,29.90
2017-08-30T20:41:01.963Z,31.23
2017-08-30T20:43:29.438Z,30.17
2017-08-30T20:45:56.907Z,47.43
2017-08-30T20:48:24.381Z,37.50
2017-08-30T20:50:51.887Z,32.50
2017-08-30T20:53:20.295Z,31.50
2017-08-30T20:55:48.233Z,35.40
2017-08-30T20:58:15.793Z,33.83
2017-08-30T21:00:43.255Z,31.63
2017-08-30T21:03:10.747Z,99.17
2017-08-30T21:05:42.548Z,48.93
2017-08-30T21:08:10.025Z,35.33
2017-08-30T21:10:37.536Z,34.87
2017-08-30T21:13:05.299Z,34.37
2017-08-30T21:15:32.962Z,40.47
2017-08-30T21:18:00.675Z,45.40
2017-08-30T21:20:29.578Z,46.57
2017-08-30T21:22:57.042Z,49.67
2017-08-30T21:25:24.532Z,53.57
2017-08-30T21:27:51.996Z,62.63
2017-08-30T21:30:19.466Z,65.50
2017-08-30T21:32:46.940Z,66.60
2017-08-30T21:35:14.743Z,59.40
2017-08-30T21:37:42.602Z,61.07
2017-08-30T21:40:10.068Z,47.83
2017-08-30T21:42:37.531Z,48.63
2017-08-30T21:45:05.002Z,65.00
2017-08-30T21:47:32.556Z,74.63
2017-08-30T21:50:00.023Z,47.07
2017-08-30T21:52:27.483Z,41.17
2017-08-30T21:54:54.970Z,39.90
2017-08-30T21:57:22.426Z,44.30
2017-08-30T21:59:49.883Z,41.00
2017-08-30T22:02:17.367Z,46.70
2017-08-30T22:04:44.823Z,44.83
2017-08-30T22:07:12.269Z,40.70
2017-08-30T22:09:39.730Z,43.17
2017-08-30T22:12:07.203Z,47.53
2017-08-30T22:14:34.963Z,40.80
2017-08-30T22:17:02.399Z,40.40
2017-08-30T22:19:29.862Z,44.67
2017-08-30T22:21:57.442Z,42.53
2017-08-30T22:24:24.906Z,42.93
2017-08-30T22:26:52.368Z,41.83
2017-08-30T22:29:19.856Z,45.90
2017-08-30T22:31:47.319Z,42.63
2017-08-30T22:34:14.774Z,47.30
2017-08-30T22:36:42.505Z,46.43
2017-08-30T22:39:09.960Z,45.20
2017-08-30T22:41:37.415Z,45.20
2017-08-30T22:44:04.903Z,48.27
2017-08-30T22:46:32.358Z,49.47
2017-08-30T22:48:59.819Z,47.20
2017-08-30T22:51:27.298Z,53.77
2017-08-30T22:53:54.756Z,57.10
2017-08-30T22:56:22.210Z,56.33
2017-08-30T22:58:49.787Z,59.63
2017-08-30T23:01:17.251Z,58.57
2017-08-30T23:03:44.706Z,61.40
2017-08-30T23:06:12.191Z,69.57
2017-08-30T23:08:39.655Z,61.80
2017-08-30T23:11:07.162Z,64.57
2017-08-30T23:13:34.748Z,70.03
2017-08-30T23:16:02.203Z,67.27
2017-08-30T23:18:29.665Z,66.60
2017-08-30T23:20:57.355Z,66.33
2017-08-30T23:23:24.815Z,59.27
2017-08-30T23:25:52.271Z,52.67
2017-08-30T23:28:19.923Z,56.77
2017-08-30T23:30:47.383Z,52.97
2017-08-30T23:33:14.840Z,52.23
2017-08-30T23:35:42.598Z,49.30
2017-08-30T23:38:10.298Z,51.33
2017-08-30T23:40:37.755Z,46.57
2017-08-30T23:43:05.245Z,48.20
2017-08-30T23:45:32.706Z,46.13
2017-08-30T23:48:00.166Z,37.53
2017-08-30T23:50:27.745Z,43.27
2017-08-30T23:52:55.199Z,41.80
2017-08-30T23:55:22.653Z,44.77
2017-08-30T23:57:50.111Z,40.73
